Time;durP1;ratioP1;P1;durP2;ratioP2;P2;SDS_P1;SDS_P2;PMS_P1;PMS_P2;Temp;Humidity;BMP_temperature;BMP_pressure;BME280_temperature;BME280_humidity;BME280_pressure;Samples;Min_cycle;Max_cycle;Signal;HPM_P1;HPM_P2
2022/05/22 00:01:56;;;;;;;2.60;1.08;;;;;;;15.19;74.68;96789.81;5039566;28;20033;-61
2022/05/22 00:04:22;;;;;;;4.80;1.30;;;;;;;15.23;73.80;96790.63;5035205;28;20118;-62
2022/05/22 00:06:48;;;;;;;4.05;0.95;;;;;;;15.26;73.40;96798.09;5019184;28;20437;-63
2022/05/22 00:09:14;;;;;;;3.05;1.30;;;;;;;15.25;73.24;96784.69;5035695;28;20045;-62
2022/05/22 00:11:39;;;;;;;5.32;1.10;;;;;;;15.21;73.00;96792.97;5048613;28;20041;-62
2022/05/22 00:14:05;;;;;;;4.30;1.20;;;;;;;15.27;73.20;96787.88;5038109;28;20151;-65
2022/05/22 00:16:36;;;;;;;2.85;1.00;;;;;;;15.28;72.84;96792.97;5038786;28;20095;-63
2022/05/22 00:19:07;;;;;;;3.60;1.10;;;;;;;15.40;72.44;96783.50;5039174;28;20040;-66
2022/05/22 00:21:33;;;;;;;4.10;1.17;;;;;;;15.53;70.37;96781.13;5021600;28;20124;-63
2022/05/22 00:23:59;;;;;;;5.03;1.00;;;;;;;15.48;71.38;96773.22;5022138;28;20139;-61
2022/05/22 00:26:24;;;;;;;2.85;0.93;;;;;;;15.48;71.95;96781.50;5034865;28;20049;-63
2022/05/22 00:28:50;;;;;;;4.15;1.17;;;;;;;15.53;71.46;96778.34;5021050;28;20052;-63
2022/05/22 00:31:16;;;;;;;5.80;1.48;;;;;;;15.66;70.93;96774.00;5035288;28;20734;-57
2022/05/22 00:33:42;;;;;;;4.07;1.10;;;;;;;15.53;71.14;96780.34;5022125;28;20033;-60
2022/05/22 00:36:08;;;;;;;3.72;1.40;;;;;;;15.61;71.76;96770.84;5033445;28;20818;-61
2022/05/22 00:38:33;;;;;;;2.85;1.10;;;;;;;15.58;71.73;96775.19;5038079;28;20055;-61
2022/05/22 00:40:59;;;;;;;3.72;1.10;;;;;;;15.48;72.48;96776.00;5039291;28;20048;-62
2022/05/22 00:43:31;;;;;;;3.83;1.25;;;;;;;15.47;73.32;96774.44;5033001;28;20056;-64
2022/05/22 00:45:58;;;;;;;3.55;1.10;;;;;;;15.43;72.87;96773.63;5037663;28;20099;-64
2022/05/22 00:48:25;;;;;;;3.20;1.00;;;;;;;15.39;72.41;96776.41;5033907;28;20923;-64
2022/05/22 00:50:52;;;;;;;4.05;1.10;;;;;;;15.51;72.63;96777.19;5039211;28;20045;-62
2022/05/22 00:53:21;;;;;;;3.55;1.00;;;;;;;15.45;72.04;96774.81;5030656;28;20044;-61
2022/05/22 00:55:46;;;;;;;2.90;0.90;;;;;;;15.57;72.06;96778.34;5038265;28;20056;-66
2022/05/22 00:58:17;;;;;;;3.53;1.13;;;;;;;15.49;71.79;96772.06;5034185;28;20041;-60
2022/05/22 01:00:43;;;;;;;4.32;1.00;;;;;;;15.57;71.68;96773.59;5040731;28;20041;-60
2022/05/22 01:03:28;;;;;;;2.92;0.73;;;;;;;15.42;72.36;96775.59;5033878;28;20106;-60
2022/05/22 01:05:57;;;;;;;3.00;0.90;;;;;;;15.28;72.68;96770.88;5020691;28;20033;-62
2022/05/22 01:08:23;;;;;;;3.15;1.02;;;;;;;15.27;74.22;96782.34;5033732;28;20642;-62
2022/05/22 01:10:54;;;;;;;3.88;0.93;;;;;;;15.09;76.59;96774.84;5021617;28;20037;-62
2022/05/22 01:13:29;;;;;;;3.08;1.00;;;;;;;15.03;77.68;96770.91;5016259;28;20572;-62
2022/05/22 01:15:55;;;;;;;2.75;1.20;;;;;;;14.92;78.87;96767.38;5036040;28;20484;-61
2022/05/22 01:18:20;;;;;;;5.20;1.30;;;;;;;14.62;80.05;96770.47;5034376;28;20037;-63
2022/05/22 01:20:48;;;;;;;4.25;1.25;;;;;;;14.61;80.81;96771.69;5023130;28;20132;-61
2022/05/22 01:23:14;;;;;;;5.68;1.20;;;;;;;14.59;81.38;96774.81;5032964;28;20037;-62
2022/05/22 01:25:40;;;;;;;3.33;1.38;;;;;;;14.42;82.53;96775.53;5030331;28;20780;-62
2022/05/22 01:28:08;;;;;;;3.03;1.40;;;;;;;14.33;84.43;96773.94;5033321;28;20041;-64
2022/05/22 01:30:33;;;;;;;4.90;1.63;;;;;;;14.47;83.92;96784.19;5038462;28;20049;-61
2022/05/22 01:32:58;;;;;;;8.90;1.88;;;;;;;14.39;83.57;96771.59;5038748;28;20393;-63
2022/05/22 01:35:26;;;;;;;2.95;1.50;;;;;;;14.47;83.48;96761.38;5030856;28;20420;-61
2022/05/22 01:37:53;;;;;;;1.83;1.20;;;;;;;14.44;83.71;96762.16;5035529;28;20041;-64
2022/05/22 01:40:19;;;;;;;8.73;2.35;;;;;;;14.39;83.85;96770.81;5011579;28;20090;-62
2022/05/22 01:42:45;;;;;;;5.55;2.00;;;;;;;14.17;85.08;96762.50;4984386;28;1063721;-62
2022/05/22 01:45:16;;;;;;;11.30;1.67;;;;;;;14.15;86.25;96771.16;5034999;28;20279;-62
2022/05/22 01:47:42;;;;;;;4.28;1.70;;;;;;;13.89;87.01;96763.94;5038980;28;20063;-64
2022/05/22 01:50:09;;;;;;;2.90;1.38;;;;;;;13.70;89.11;96762.31;5033173;28;20075;-66
2022/05/22 01:52:35;;;;;;;4.30;1.40;;;;;;;13.48;90.83;96760.59;5047182;28;20037;-63
2022/05/22 01:55:00;;;;;;;5.03;1.45;;;;;;;13.44;92.82;96763.31;5045982;28;20045;-65
2022/05/22 01:57:27;;;;;;;4.95;1.45;;;;;;;13.43;92.68;96749.94;5023969;28;20075;-64
2022/05/22 01:59:52;;;;;;;2.88;1.38;;;;;;;13.30;92.86;96760.44;5033312;28;20045;-66
2022/05/22 02:02:18;;;;;;;2.55;1.20;;;;;;;13.27;93.62;96756.53;5038175;28;20370;-65
2022/05/22 02:04:43;;;;;;;4.95;2.00;;;;;;;13.27;93.31;96764.78;5058814;28;20547;-64
2022/05/22 02:09:53;;;;;;;7.15;1.60;;;;;;;13.12;94.53;96766.59;5059301;28;20405;-65
2022/05/22 02:12:18;;;;;;;6.28;1.77;;;;;;;13.07;95.57;96756.00;5049725;28;20051;-62
2022/05/22 02:14:44;;;;;;;7.57;1.75;;;;;;;12.98;95.81;96755.50;5044481;28;20493;-61
2022/05/22 02:17:09;;;;;;;3.92;1.55;;;;;;;12.87;96.63;96755.41;5038084;28;20123;-62
2022/05/22 02:19:34;;;;;;;6.18;1.80;;;;;;;12.85;98.61;96762.47;5043472;28;20051;-60
2022/05/22 02:22:00;;;;;;;6.53;2.05;;;;;;;12.88;99.19;96764.47;5044607;28;20401;-61
2022/05/22 02:24:26;;;;;;;5.00;1.70;;;;;;;12.87;98.99;96755.41;5038323;28;20037;-61
2022/05/22 02:26:51;;;;;;;11.70;1.60;;;;;;;12.79;98.97;96753.78;5034961;28;20064;-62
2022/05/22 02:29:17;;;;;;;5.07;1.77;;;;;;;12.75;98.70;96751.00;5020072;28;20048;-64
2022/05/22 02:31:42;;;;;;;6.38;1.30;;;;;;;12.80;99.83;96752.59;5043823;28;20047;-62
2022/05/22 02:34:07;;;;;;;3.50;1.90;;;;;;;12.59;100.00;96751.25;5036258;28;20028;-62
2022/05/22 02:36:33;;;;;;;5.57;2.08;;;;;;;12.43;100.00;96740.50;5040074;28;20053;-65
2022/05/22 02:38:58;;;;;;;5.05;1.98;;;;;;;12.39;100.00;96747.16;5025338;28;20150;-64
2022/05/22 02:41:25;;;;;;;7.35;1.90;;;;;;;12.28;100.00;96740.75;5029690;28;20049;-61
2022/05/22 02:43:51;;;;;;;8.00;2.00;;;;;;;12.36;100.00;96745.16;5042275;28;20076;-64
2022/05/22 02:46:18;;;;;;;4.90;1.88;;;;;;;12.30;100.00;96755.69;5036831;28;20048;-65
2022/05/22 02:48:44;;;;;;;7.15;1.90;;;;;;;12.19;100.00;96752.84;5043297;28;20394;-64
2022/05/22 02:51:20;;;;;;;4.72;1.63;;;;;;;12.18;100.00;96755.94;5035655;28;20060;-63
2022/05/22 02:53:46;;;;;;;10.75;2.20;;;;;;;12.17;100.00;96749.69;5043047;28;20071;-63
2022/05/22 02:56:15;;;;;;;3.63;1.60;;;;;;;12.27;100.00;96742.72;5029817;28;20478;-64
2022/05/22 02:58:41;;;;;;;2.95;1.30;;;;;;;12.37;100.00;96731.06;5040277;28;20131;-64
2022/05/22 03:01:06;;;;;;;4.55;1.90;;;;;;;12.21;100.00;96731.28;5038653;28;20048;-65
2022/05/22 03:03:32;;;;;;;4.63;1.52;;;;;;;12.24;100.00;96727.78;5050856;28;20041;-63
2022/05/22 03:08:41;;;;;;;8.88;1.80;;;;;;;12.18;100.00;96740.25;5023976;28;20391;-65
2022/05/22 03:11:07;;;;;;;6.65;1.63;;;;;;;12.18;100.00;96739.47;5035753;28;20048;-64
2022/05/22 03:13:33;;;;;;;7.50;1.95;;;;;;;12.43;100.00;96732.28;5042563;28;20051;-64
2022/05/22 03:15:59;;;;;;;4.07;1.70;;;;;;;12.47;100.00;96723.28;5048779;28;20041;-64
2022/05/22 03:18:24;;;;;;;4.53;1.90;;;;;;;12.49;100.00;96721.72;5028138;28;20056;-63
2022/05/22 03:20:50;;;;;;;7.00;2.05;;;;;;;12.50;100.00;96719.78;5050180;28;20049;-64
2022/05/22 03:23:16;;;;;;;6.53;2.17;;;;;;;12.32;100.00;96733.34;5020339;28;20032;-63
2022/05/22 03:25:43;;;;;;;3.63;1.80;;;;;;;12.15;100.00;96731.97;5039340;28;20048;-64
2022/05/22 03:28:09;;;;;;;8.43;1.90;;;;;;;12.04;100.00;96724.41;5030703;28;20041;-64
2022/05/22 03:30:35;;;;;;;5.40;2.38;;;;;;;12.08;100.00;96727.19;5041750;28;20029;-62
2022/05/22 03:33:00;;;;;;;6.50;2.22;;;;;;;12.00;100.00;96728.31;5050994;28;20525;-63
2022/05/22 03:35:26;;;;;;;5.55;2.20;;;;;;;12.15;100.00;96734.72;5051864;28;20066;-62
2022/05/22 03:37:51;;;;;;;7.07;2.30;;;;;;;11.99;100.00;96718.47;5046886;28;20044;-64
2022/05/22 03:40:17;;;;;;;6.30;1.80;;;;;;;11.97;100.00;96723.56;5037377;28;20048;-64
2022/05/22 03:42:42;;;;;;;9.75;2.33;;;;;;;11.90;100.00;96735.22;5040165;28;20722;-63
2022/05/22 03:45:08;;;;;;;4.55;1.80;;;;;;;11.73;100.00;96733.06;5018980;28;20041;-64
2022/05/22 03:47:34;;;;;;;8.73;2.30;;;;;;;11.47;100.00;96731.94;5041427;28;20049;-64
2022/05/22 03:50:04;;;;;;;4.30;1.83;;;;;;;11.31;100.00;96731.31;5023945;28;20048;-63
2022/05/22 03:52:40;;;;;;;6.40;1.85;;;;;;;11.33;100.00;96735.28;5032899;28;20509;-65
2022/05/22 03:55:08;;;;;;;4.25;2.30;;;;;;;11.28;100.00;96738.34;5030800;28;20040;-64
2022/05/22 03:57:33;;;;;;;7.25;2.10;;;;;;;11.53;100.00;96735.16;5038156;28;20059;-64
2022/05/22 04:00:02;;;;;;;5.57;2.00;;;;;;;11.34;100.00;96731.34;5042623;28;20131;-64
2022/05/22 04:02:28;;;;;;;6.57;2.55;;;;;;;11.54;100.00;96732.03;5039419;28;20041;-64
2022/05/22 04:04:54;;;;;;;5.13;1.92;;;;;;;11.48;100.00;96720.59;5042786;28;20041;-63
2022/05/22 04:07:20;;;;;;;6.75;2.10;;;;;;;11.18;100.00;96734.28;5036619;28;20497;-64
2022/05/22 04:09:45;;;;;;;4.72;2.00;;;;;;;11.43;100.00;96731.91;5042739;28;20116;-63
2022/05/22 04:12:11;;;;;;;5.47;1.92;;;;;;;11.51;100.00;96723.78;5028772;28;20041;-68
2022/05/22 04:14:37;;;;;;;3.85;2.00;;;;;;;11.43;100.00;96731.91;5042651;28;20067;-65
2022/05/22 04:17:03;;;;;;;5.30;1.73;;;;;;;11.86;100.00;96720.66;5030802;28;20103;-63
2022/05/22 04:19:29;;;;;;;5.00;2.25;;;;;;;12.22;100.00;96729.31;5036358;28;20043;-64
2022/05/22 04:21:54;;;;;;;4.72;1.83;;;;;;;12.55;100.00;96735.91;5043606;28;20076;-63
2022/05/22 04:27:05;;;;;;;4.68;2.03;;;;;;;13.09;100.00;96736.34;5046776;28;20048;-62
2022/05/22 04:29:35;;;;;;;4.25;1.77;;;;;;;13.36;100.00;96732.25;5050105;28;20093;-65
2022/05/22 04:32:01;;;;;;;;;;;;;;;13.38;98.84;96729.09;5051998;28;20079;-65
2022/05/22 04:34:27;;;;;;;3.22;1.83;;;;;;;13.61;97.24;96726.06;5046779;28;19913;-65
2022/05/22 04:36:52;;;;;;;7.75;1.90;;;;;;;13.67;96.46;96719.03;5052151;28;20495;-65
2022/05/22 04:39:18;;;;;;;4.95;2.03;;;;;;;13.24;97.33;96724.28;5039750;28;20044;-65
2022/05/22 04:41:43;;;;;;;3.78;1.80;;;;;;;13.45;99.34;96733.84;5049846;28;20040;-64
2022/05/22 04:44:09;;;;;;;4.82;2.13;;;;;;;13.89;95.84;96733.66;5040857;28;20041;-67
2022/05/22 04:46:34;;;;;;;4.13;1.85;;;;;;;14.36;92.97;96738.53;5022675;28;20076;-64
2022/05/22 04:49:00;;;;;;;4.35;1.80;;;;;;;14.70;89.61;96727.97;5041415;28;20175;-64
2022/05/22 04:51:25;;;;;;;8.02;2.20;;;;;;;14.87;87.77;96724.44;5036215;28;20492;-65
2022/05/22 04:53:51;;;;;;;3.05;1.92;;;;;;;14.93;87.26;96718.50;5040951;28;20515;-63
2022/05/22 04:56:16;;;;;;;3.65;2.00;;;;;;;15.14;84.67;96714.94;5036545;28;20576;-62
2022/05/22 04:58:42;;;;;;;5.03;1.88;;;;;;;15.47;83.54;96713.72;5032537;28;20105;-63
2022/05/22 05:01:09;;;;;;;4.80;1.63;;;;;;;16.41;80.76;96712.13;5037535;28;20114;-64
2022/05/22 05:03:35;;;;;;;3.83;1.60;;;;;;;17.41;72.90;96715.25;5040163;28;20041;-63
2022/05/22 05:06:01;;;;;;;3.30;1.60;;;;;;;18.30;67.78;96707.88;5039811;28;20223;-64
2022/05/22 05:08:29;;;;;;;5.45;1.50;;;;;;;19.88;62.43;96707.25;5036614;28;20405;-63
2022/05/22 05:10:59;;;;;;;4.75;1.80;;;;;;;20.22;60.12;96706.91;5041242;28;20037;-64
2022/05/22 05:13:26;;;;;;;6.53;1.40;;;;;;;20.21;57.52;96712.91;5032609;28;20063;-64
2022/05/22 05:16:05;;;;;;;5.30;1.20;;;;;;;21.04;56.03;96709.00;5039705;28;20087;-64
2022/05/22 05:18:32;;;;;;;2.42;1.20;;;;;;;22.74;50.96;96694.69;5030853;28;20413;-63
2022/05/22 05:21:03;;;;;;;9.02;1.60;;;;;;;22.99;49.61;96699.47;5036643;28;20111;-63
2022/05/22 05:23:29;;;;;;;2.30;1.10;;;;;;;22.42;50.84;96692.91;5035111;28;20118;-63
2022/05/22 05:25:54;;;;;;;2.40;1.00;;;;;;;21.93;52.22;96694.72;5039662;28;20473;-65
2022/05/22 05:28:19;;;;;;;3.00;0.98;;;;;;;21.46;53.25;96700.78;5031524;28;20064;-65
2022/05/22 05:30:45;;;;;;;7.65;1.55;;;;;;;19.71;59.01;96700.00;5040926;28;20067;-64
2022/05/22 05:33:10;;;;;;;7.85;1.70;;;;;;;18.96;63.91;96700.19;5033023;28;20428;-65
2022/05/22 05:35:37;;;;;;;2.53;1.40;;;;;;;18.83;64.73;96691.66;5041238;28;20040;-65
2022/05/22 05:38:03;;;;;;;3.80;1.45;;;;;;;19.42;63.16;96675.56;5042493;28;20132;-62
2022/05/22 05:40:28;;;;;;;5.70;1.48;;;;;;;19.91;60.35;96680.56;5042326;28;20136;-64
2022/05/22 05:42:54;;;;;;;6.03;2.40;;;;;;;20.11;59.54;96664.63;5042427;28;20127;-64
2022/05/22 05:45:20;;;;;;;6.68;2.33;;;;;;;19.85;60.56;96661.63;5036929;28;20163;-62
2022/05/22 05:47:50;;;;;;;4.10;1.55;;;;;;;18.31;65.06;96661.53;5044226;28;20037;-65
2022/05/22 05:50:20;;;;;;;3.83;1.50;;;;;;;16.85;75.48;96651.75;5038561;28;20067;-64
2022/05/22 05:52:46;;;;;;;5.10;1.45;;;;;;;16.84;77.79;96660.50;5040834;28;20053;-63
2022/05/22 05:55:12;;;;;;;5.32;2.10;;;;;;;16.47;80.15;96657.19;5032999;28;20044;-66
2022/05/22 05:57:37;;;;;;;4.38;1.83;;;;;;;16.38;80.61;96649.34;5042630;28;20578;-65
2022/05/22 06:00:05;;;;;;;3.10;1.65;;;;;;;16.82;79.05;96658.88;5039055;28;20037;-61
2022/05/22 06:02:31;;;;;;;5.22;1.73;;;;;;;17.58;74.82;96653.38;5043235;28;20208;-64
2022/05/22 06:04:56;;;;;;;8.68;2.20;;;;;;;17.20;76.09;96653.41;5043835;28;20037;-66
2022/05/22 06:07:21;;;;;;;4.65;2.28;;;;;;;17.82;71.70;96647.91;5037935;28;20572;-65
2022/05/22 06:09:47;;;;;;;8.25;2.22;;;;;;;17.41;75.91;96654.34;5044078;28;20111;-64
2022/05/22 06:12:12;;;;;;;10.20;2.10;;;;;;;16.10;80.57;96639.28;5038460;28;20041;-65
2022/05/22 06:14:38;;;;;;;11.85;2.35;;;;;;;15.57;86.49;96645.84;5042307;28;20051;-64
2022/05/22 06:17:04;;;;;;;3.00;1.60;;;;;;;16.56;83.70;96645.66;5039025;28;20095;-62
2022/05/22 06:22:15;;;;;;;3.53;2.17;;;;;;;16.14;86.72;96648.34;5037565;28;20408;-64
2022/05/22 06:24:40;;;;;;;4.45;1.80;;;;;;;16.68;84.68;96649.94;5040884;28;20127;-65
2022/05/22 06:27:06;;;;;;;5.35;2.40;;;;;;;17.18;79.21;96643.94;5030166;28;20137;-64
2022/05/22 06:29:31;;;;;;;4.10;2.42;;;;;;;16.47;81.91;96639.81;5043262;28;20053;-64
2022/05/22 06:31:57;;;;;;;9.73;3.00;;;;;;;16.05;80.97;96637.72;5051816;28;20041;-64
2022/05/22 06:34:22;;;;;;;5.82;2.30;;;;;;;17.02;81.62;96640.97;5038018;28;20141;-64
2022/05/22 06:36:49;;;;;;;7.97;2.47;;;;;;;17.20;79.55;96644.31;5042174;28;20163;-64
2022/05/22 06:41:58;;;;;;;9.02;2.72;;;;;;;16.81;78.48;96632.41;5034312;28;20118;-63
2022/05/22 06:44:24;;;;;;;6.28;2.63;;;;;;;17.18;79.22;96632.88;5037718;28;20980;-64
2022/05/22 06:46:49;;;;;;;5.53;2.40;;;;;;;17.11;77.03;96630.19;5042619;28;20575;-65
2022/05/22 06:49:14;;;;;;;8.73;3.30;;;;;;;16.77;81.58;96628.09;5037445;28;20044;-65
2022/05/22 06:51:40;;;;;;;6.55;2.90;;;;;;;17.22;77.97;96621.75;5043165;28;20131;-66
2022/05/22 06:54:05;;;;;;;6.00;2.50;;;;;;;19.09;70.75;96617.84;5036284;28;20053;-64
2022/05/22 06:56:30;;;;;;;5.93;2.60;;;;;;;19.33;67.74;96620.56;5038784;28;20411;-65
2022/05/22 06:58:56;;;;;;;7.25;2.75;;;;;;;18.80;69.98;96619.53;5042940;28;20068;-65
2022/05/22 07:01:21;;;;;;;7.57;3.08;;;;;;;18.96;70.91;96616.91;5045392;28;20061;-64
2022/05/22 07:03:47;;;;;;;8.30;2.90;;;;;;;17.84;76.36;96620.59;5059147;28;20110;-64
2022/05/22 07:06:12;;;;;;;6.90;3.35;;;;;;;17.94;77.21;96622.47;5041080;28;20464;-64
2022/05/22 07:08:38;;;;;;;7.35;3.20;;;;;;;18.66;73.18;96634.44;5042203;28;20068;-64
2022/05/22 07:13:48;;;;;;;5.05;2.58;;;;;;;18.23;74.96;96622.03;5039181;28;20052;-66
2022/05/22 07:16:13;;;;;;;7.72;2.90;;;;;;;17.45;79.45;96626.63;5029723;28;20037;-65
2022/05/22 07:18:38;;;;;;;5.78;3.13;;;;;;;17.13;81.54;96616.72;5042430;28;20045;-65
2022/05/22 07:21:04;;;;;;;6.18;2.65;;;;;;;17.92;78.82;96624.88;5033966;28;20044;-62
2022/05/22 07:23:29;;;;;;;5.45;3.05;;;;;;;18.43;74.85;96624.91;5037607;28;20102;-63
2022/05/22 07:25:55;;;;;;;8.90;3.25;;;;;;;17.87;78.20;96625.31;5041343;28;20468;-65
2022/05/22 07:28:21;;;;;;;10.27;3.90;;;;;;;18.96;72.96;96618.88;5018511;28;20037;-64
2022/05/22 07:30:46;;;;;;;6.80;3.65;;;;;;;18.44;77.37;96625.69;5045822;28;20140;-65
2022/05/22 07:33:12;;;;;;;6.50;3.50;;;;;;;17.98;80.55;96613.31;5044154;28;20041;-65
2022/05/22 07:35:37;;;;;;;5.25;3.70;;;;;;;17.99;78.95;96618.44;5043477;28;20416;-65
2022/05/22 07:38:03;;;;;;;6.28;3.00;;;;;;;18.48;77.62;96629.19;5038032;28;20037;-60
2022/05/22 07:40:30;;;;;;;4.00;2.60;;;;;;;19.61;72.84;96624.00;5040753;28;20045;-63
2022/05/22 07:42:55;;;;;;;4.45;2.90;;;;;;;19.56;71.62;96621.72;5039395;28;20040;-64
2022/05/22 07:45:21;;;;;;;8.05;3.45;;;;;;;18.33;76.35;96620.31;5038247;28;20496;-66
2022/05/22 07:47:46;;;;;;;9.70;3.60;;;;;;;18.27;78.20;96620.00;5045835;28;20048;-65
2022/05/22 07:50:20;;;;;;;10.40;3.22;;;;;;;19.21;73.06;96615.66;5039811;28;20124;-65
2022/05/22 07:52:50;;;;;;;6.18;3.20;;;;;;;19.45;71.17;96616.41;5043734;28;20047;-65
2022/05/22 07:55:18;;;;;;;5.07;2.70;;;;;;;19.13;72.90;96615.00;5035969;28;20045;-61
2022/05/22 07:57:51;;;;;;;5.55;3.03;;;;;;;20.37;68.14;96614.81;5037647;28;20048;-64
2022/05/22 08:00:19;;;;;;;5.40;2.97;;;;;;;19.87;69.08;96616.72;5023712;28;20423;-62
2022/05/22 08:02:45;;;;;;;7.88;3.15;;;;;;;19.87;68.10;96611.16;5039029;28;20102;-64
2022/05/22 08:05:13;;;;;;;11.40;2.90;;;;;;;20.59;66.97;96606.72;5036419;28;20045;-62
2022/05/22 08:07:38;;;;;;;4.13;2.70;;;;;;;21.17;64.33;96600.47;5048506;28;20036;-64
2022/05/22 08:10:06;;;;;;;9.80;3.30;;;;;;;19.77;68.81;96607.41;5038341;28;20037;-61
2022/05/22 08:12:36;;;;;;;8.00;3.42;;;;;;;18.99;72.28;96601.41;5041041;28;20409;-62
2022/05/22 08:15:02;;;;;;;8.55;3.45;;;;;;;20.03;69.64;96602.84;5034404;28;20509;-61
2022/05/22 08:17:28;;;;;;;5.57;2.80;;;;;;;20.70;66.48;96598.91;5035220;28;20504;-64
2022/05/22 08:19:53;;;;;;;6.40;3.42;;;;;;;20.92;65.92;96599.16;5041993;28;20037;-64
2022/05/22 08:22:19;;;;;;;5.22;3.22;;;;;;;19.96;69.63;96591.13;5036897;28;20493;-64
2022/05/22 08:24:44;;;;;;;8.10;3.10;;;;;;;20.29;69.53;96593.94;5041380;28;20048;-64
2022/05/22 08:27:10;;;;;;;6.60;2.97;;;;;;;20.19;69.20;96595.78;5033103;28;20544;-63
2022/05/22 08:29:35;;;;;;;8.55;3.22;;;;;;;20.65;66.49;96587.53;5032382;28;20041;-63
2022/05/22 08:32:01;;;;;;;7.13;3.13;;;;;;;21.25;64.93;96587.13;5038504;28;20119;-65
2022/05/22 08:34:27;;;;;;;8.65;3.15;;;;;;;20.09;69.19;96580.13;5016782;28;20037;-65
2022/05/22 08:36:52;;;;;;;4.88;3.20;;;;;;;19.44;72.14;96589.81;5040695;28;20072;-63
2022/05/22 08:39:18;;;;;;;6.63;3.30;;;;;;;20.46;69.17;96583.63;5034331;28;20131;-64
2022/05/22 08:41:50;;;;;;;10.70;3.38;;;;;;;21.10;65.90;96581.94;5039485;28;20385;-65
2022/05/22 08:44:22;;;;;;;6.78;2.83;;;;;;;20.75;67.19;96586.47;5033918;28;20064;-61
2022/05/22 08:47:01;;;;;;;4.75;2.78;;;;;;;20.47;68.75;96579.59;5040077;28;20043;-63
2022/05/22 08:49:46;;;;;;;5.93;3.28;;;;;;;19.82;71.66;96575.53;5025961;28;20084;-65
2022/05/22 08:52:36;;;;;;;8.38;3.20;;;;;;;19.51;74.00;96581.34;5029535;28;20128;-66
2022/05/22 08:55:13;;;;;;;;;;;;;;;19.47;74.75;96575.84;5023762;28;20134;-63
2022/05/22 09:00:32;;;;;;;6.88;3.45;;;;;;;21.67;64.24;96565.66;5041778;28;20045;-61
2022/05/22 09:03:00;;;;;;;7.88;3.42;;;;;;;21.92;64.40;96573.25;5040228;28;20488;-64
2022/05/22 09:05:29;;;;;;;5.22;2.92;;;;;;;22.66;62.17;96582.50;5026098;28;20056;-64
2022/05/22 09:08:14;;;;;;;6.90;3.15;;;;;;;22.00;62.77;96567.47;5044601;28;20065;-65
2022/05/22 09:11:02;;;;;;;6.47;3.67;;;;;;;22.50;61.19;96563.09;5043839;28;20394;-65
2022/05/22 09:13:30;;;;;;;8.85;3.97;;;;;;;22.49;61.33;96565.13;5044883;28;20105;-65
2022/05/22 09:16:05;;;;;;;5.63;3.15;;;;;;;22.93;60.16;96572.81;5058012;28;20135;-65
2022/05/22 09:18:48;;;;;;;5.45;3.20;;;;;;;22.60;60.33;96575.94;5041373;28;20044;-64
2022/05/22 09:21:51;;;;;;;8.70;3.38;;;;;;;20.24;71.34;96565.44;5033590;28;20033;-65
2022/05/22 09:24:37;;;;;;;7.70;3.67;;;;;;;19.70;74.43;96570.63;4954617;28;20064;-66
2022/05/22 09:27:14;;;;;;;5.95;3.58;;;;;;;19.61;76.51;96574.00;5034464;28;20051;-61
2022/05/22 09:30:00;;;;;;;5.28;3.20;;;;;;;21.24;70.65;96577.22;5044064;28;20587;-66
2022/05/22 09:32:51;;;;;;;6.50;3.42;;;;;;;22.01;65.98;96563.47;5031380;28;20042;-64
2022/05/22 09:35:46;;;;;;;7.03;3.42;;;;;;;22.61;65.02;96563.50;5032228;28;20072;-65
2022/05/22 09:38:22;;;;;;;7.93;2.92;;;;;;;23.12;61.41;96559.81;5039121;28;20037;-65
2022/05/22 09:40:50;;;;;;;5.18;2.67;;;;;;;22.66;63.40;96542.63;5040816;28;20045;-65
2022/05/22 09:43:38;;;;;;;5.13;2.83;;;;;;;21.78;65.95;96554.19;5013322;28;20053;-64
2022/05/22 09:46:41;;;;;;;5.45;2.95;;;;;;;21.86;65.76;96558.31;5041662;28;20052;-61
2022/05/22 09:49:26;;;;;;;5.00;2.88;;;;;;;21.93;66.06;96554.50;5029144;28;20048;-64
2022/05/22 09:52:22;;;;;;;8.13;3.83;;;;;;;21.70;66.96;96544.50;5044686;28;20045;-63
2022/05/22 09:55:06;;;;;;;5.82;3.15;;;;;;;21.82;67.56;96549.28;5044158;28;20041;-65
2022/05/22 09:58:03;;;;;;;7.05;4.03;;;;;;;21.55;66.78;96549.69;5034479;28;20109;-66
2022/05/22 10:00:38;;;;;;;6.43;3.40;;;;;;;21.56;67.13;96540.13;4961364;28;20037;-65
2022/05/22 10:03:08;;;;;;;6.80;3.30;;;;;;;21.72;67.59;96526.09;5032749;28;20073;-62
2022/05/22 10:05:51;;;;;;;7.35;3.70;;;;;;;21.89;67.37;96529.53;5039067;28;20060;-65
2022/05/22 10:08:32;;;;;;;6.90;3.05;;;;;;;21.89;66.53;96525.97;5038642;28;20673;-63
2022/05/22 10:11:09;;;;;;;10.57;5.85;;;;;;;21.89;66.37;96526.75;5043749;28;20048;-63
2022/05/22 10:13:57;;;;;;;9.15;4.30;;;;;;;21.96;66.45;96526.53;5024977;28;20060;-64
2022/05/22 10:16:43;;;;;;;6.45;3.28;;;;;;;22.21;66.14;96510.22;5014213;28;20049;-65
2022/05/22 10:19:30;;;;;;;6.43;3.13;;;;;;;22.28;63.92;96516.38;5031240;28;20045;-64
2022/05/22 10:22:01;;;;;;;4.63;2.90;;;;;;;22.73;63.95;96506.09;5024817;28;20044;-64
2022/05/22 10:24:38;;;;;;;7.88;3.10;;;;;;;22.85;62.37;96491.31;5038391;28;20037;-64
2022/05/22 10:27:15;;;;;;;7.05;3.22;;;;;;;22.91;63.01;96492.28;5026469;28;20698;-60
2022/05/22 10:30:06;;;;;;;6.82;3.20;;;;;;;22.77;61.74;96497.59;5022627;28;20041;-65
2022/05/22 10:32:39;;;;;;;7.32;3.25;;;;;;;23.10;61.19;96492.44;5032162;28;20060;-66
2022/05/22 10:35:23;;;;;;;4.95;2.72;;;;;;;23.26;60.07;96495.03;5037180;28;20052;-61
2022/05/22 10:38:09;;;;;;;8.10;3.70;;;;;;;23.67;59.91;96501.44;5042426;28;20049;-65
2022/05/22 10:43:18;;;;;;;7.65;4.13;;;;;;;23.96;59.09;96488.41;5037804;28;20438;-66
2022/05/22 10:45:44;;;;;;;7.55;3.17;;;;;;;23.56;58.91;96481.53;5042074;28;20083;-64
2022/05/22 10:48:23;;;;;;;4.72;2.97;;;;;;;23.12;61.63;96478.81;5031537;28;20033;-66
2022/05/22 10:51:08;;;;;;;10.27;4.80;;;;;;;23.46;60.72;96472.34;5041347;28;20516;-66
2022/05/22 10:53:48;;;;;;;5.60;3.22;;;;;;;23.98;58.98;96469.13;5055978;28;20048;-66
2022/05/22 10:56:14;;;;;;;5.07;3.13;;;;;;;23.77;57.74;96471.53;5048717;28;20044;-66
2022/05/22 10:59:01;;;;;;;8.02;4.05;;;;;;;24.57;57.25;96460.72;5042307;28;20415;-65
2022/05/22 11:01:35;;;;;;;8.43;3.30;;;;;;;24.30;57.67;96465.00;5037752;28;20578;-66
2022/05/22 11:04:16;;;;;;;5.75;2.83;;;;;;;24.60;56.48;96454.19;5032300;28;20059;-66
2022/05/22 11:07:00;;;;;;;5.20;2.60;;;;;;;25.33;54.00;96453.31;5040434;28;20044;-66
2022/05/22 11:09:29;;;;;;;3.70;2.33;;;;;;;25.38;51.66;96455.50;5037152;28;20045;-65
2022/05/22 11:12:10;;;;;;;6.10;2.63;;;;;;;25.10;52.07;96445.56;5059336;28;20093;-66
2022/05/22 11:14:36;;;;;;;5.72;2.47;;;;;;;25.71;52.81;96454.78;5059881;28;20112;-62
2022/05/22 11:17:07;;;;;;;5.93;2.78;;;;;;;25.94;52.22;96444.84;5053934;28;20132;-65
2022/05/22 11:19:38;;;;;;;6.97;2.67;;;;;;;25.48;51.94;96438.63;5033605;28;20045;-66
2022/05/22 11:22:15;;;;;;;7.40;2.03;;;;;;;24.55;50.63;96432.41;5051882;28;20128;-62
2022/05/22 11:25:02;;;;;;;6.50;1.75;;;;;;;25.16;48.99;96430.47;5041745;28;20055;-64
2022/05/22 11:27:51;;;;;;;4.97;2.00;;;;;;;25.10;50.12;96425.97;5039340;28;20041;-64
2022/05/22 11:30:52;;;;;;;5.95;2.10;;;;;;;25.41;48.97;96416.56;5035398;28;20044;-64
2022/05/22 11:33:20;;;;;;;4.80;2.95;;;;;;;25.84;47.79;96420.09;5034172;28;20100;-66
2022/05/22 11:35:45;;;;;;;4.28;2.28;;;;;;;25.51;47.29;96421.66;5032295;28;20045;-65
2022/05/22 11:38:29;;;;;;;5.13;1.80;;;;;;;25.63;48.05;96419.13;5035367;28;20037;-66
2022/05/22 11:41:01;;;;;;;2.92;1.75;;;;;;;25.33;50.88;96414.09;5042363;28;20133;-66
2022/05/22 11:43:26;;;;;;;4.55;1.75;;;;;;;25.19;50.20;96409.13;5032172;28;20036;-63
2022/05/22 11:46:03;;;;;;;5.47;1.67;;;;;;;25.46;49.96;96396.28;5040254;28;20558;-64
2022/05/22 11:48:37;;;;;;;3.45;1.85;;;;;;;24.94;52.24;96402.66;5038810;28;20044;-65
2022/05/22 11:51:16;;;;;;;6.88;2.40;;;;;;;24.34;54.45;96392.84;5029179;28;20072;-63
2022/05/22 11:54:14;;;;;;;6.13;2.22;;;;;;;23.97;52.89;96392.06;5041594;28;20079;-67
2022/05/22 11:56:51;;;;;;;6.15;2.83;;;;;;;23.99;54.83;96379.16;5023999;28;20071;-65
2022/05/22 11:59:22;;;;;;;5.28;2.33;;;;;;;23.90;53.32;96386.78;5022039;28;20429;-65
2022/05/22 12:01:58;;;;;;;5.50;2.30;;;;;;;23.58;52.63;96388.81;5039672;28;20513;-65
2022/05/22 12:04:32;;;;;;;3.97;2.15;;;;;;;23.72;53.26;96370.72;5035243;28;20630;-66
2022/05/22 12:07:13;;;;;;;4.07;2.08;;;;;;;23.86;50.34;96367.34;5039253;28;20037;-65